Time;durP1;ratioP1;P1;durP2;ratioP2;P2;SDS_P1;SDS_P2;PMS_P1;PMS_P2;Temp;Humidity;BMP_temperature;BMP_pressure;BME280_temperature;BME280_humidity;BME280_pressure;Samples;Min_cycle;Max_cycle;Signal;HPM_P1;HPM_P2
2021/12/18 00:24:28;;;;;;;30.80;8.75;;;7.30;64.50;;;;;;6142023;23;20022;-54
2021/12/18 00:26:54;;;;;;;27.13;9.75;;;7.30;64.40;;;;;;6141745;23;20010;-56
2021/12/18 00:29:20;;;;;;;16.15;9.15;;;7.30;64.30;;;;;;6142522;23;20613;-52
2021/12/18 00:31:46;;;;;;;15.50;8.75;;;7.30;64.20;;;;;;6141767;23;19997;-50
2021/12/18 00:34:12;;;;;;;26.77;9.25;;;7.20;64.10;;;;;;6145075;23;20005;-54
2021/12/18 00:36:38;;;;;;;19.48;9.70;;;7.20;64.10;;;;;;6142316;23;20009;-50
2021/12/18 00:39:05;;;;;;;33.75;11.43;;;7.20;64.10;;;;;;6143369;23;20001;-51
2021/12/18 00:44:04;;;;;;;20.60;10.52;;;7.10;64.30;;;;;;6144977;23;20005;-53
2021/12/18 00:46:40;;;;;;;20.80;11.57;;;7.10;64.40;;;;;;6142110;23;20422;-53
2021/12/18 00:49:08;;;;;;;43.25;11.75;;;7.00;64.40;;;;;;6152735;23;20006;-52
2021/12/18 00:51:35;;;;;;;60.63;12.02;;;7.00;64.60;;;;;;6144697;23;20005;-54
2021/12/18 00:54:02;;;;;;;55.97;10.82;;;7.00;64.70;;;;;;6143669;23;20079;-53
2021/12/18 00:56:28;;;;;;;141.23;12.95;;;7.00;64.90;;;;;;6144512;23;19998;-54
2021/12/18 00:58:54;;;;;;;134.13;11.02;;;7.00;65.00;;;;;;6142355;23;20017;-56
2021/12/18 01:01:22;;;;;;;74.35;11.85;;;7.00;65.10;;;;;;6142823;23;20300;-53
2021/12/18 01:03:50;;;;;;;88.60;11.35;;;7.00;65.20;;;;;;6143065;23;20006;-56
2021/12/18 01:06:18;;;;;;;62.65;10.32;;;7.00;65.20;;;;;;6145082;23;20001;-53
2021/12/18 01:08:45;;;;;;;114.43;10.52;;;7.00;65.30;;;;;;6145537;23;20056;-53
2021/12/18 01:14:12;;;;;;;24.70;9.88;;;7.00;65.40;;;;;;6155128;23;20334;-52
2021/12/18 01:24:52;;;;;;;14.82;9.35;;;7.00;65.20;;;;;;6126363;23;20358;-54
2021/12/18 01:27:19;;;;;;;17.05;9.52;;;7.00;65.30;;;;;;6115400;23;20006;-56
2021/12/18 01:29:46;;;;;;;13.77;7.68;;;6.90;65.30;;;;;;6114886;23;20010;-56
2021/12/18 01:32:12;;;;;;;20.40;8.63;;;6.90;65.50;;;;;;6113284;23;20446;-53
2021/12/18 01:34:38;;;;;;;25.48;8.00;;;6.90;65.60;;;;;;6117224;23;20006;-54
2021/12/18 01:37:05;;;;;;;26.55;8.13;;;6.90;65.60;;;;;;6113439;23;20009;-54
2021/12/18 01:39:32;;;;;;;76.03;10.43;;;6.90;65.40;;;;;;6114319;23;20339;-53
2021/12/18 01:52:53;;;;;;;80.30;10.02;;;6.80;64.40;;;;;;6124452;23;20028;-54
2021/12/18 01:55:40;;;;;;;52.42;12.18;;;6.80;64.50;;;;;;6116276;23;20002;-53
2021/12/18 01:58:07;;;;;;;106.38;12.50;;;6.80;64.60;;;;;;6124097;23;20439;-53
2021/12/18 02:00:37;;;;;;;94.28;11.85;;;6.80;64.80;;;;;;6116070;23;20006;-53
2021/12/18 02:03:04;;;;;;;66.78;13.35;;;6.80;64.90;;;;;;6113228;23;20002;-53
2021/12/18 02:05:30;;;;;;;79.50;12.32;;;6.80;64.90;;;;;;6115839;23;20006;-52
2021/12/18 02:07:56;;;;;;;53.50;12.48;;;6.90;65.10;;;;;;6114260;23;20309;-54
2021/12/18 02:10:26;;;;;;;63.17;12.50;;;6.90;65.20;;;;;;6115312;23;20002;-54
2021/12/18 02:20:59;;;;;;;63.83;14.45;;;6.90;65.50;;;;;;6125940;23;20013;-56
2021/12/18 02:23:26;;;;;;;66.43;14.40;;;6.90;65.50;;;;;;6114287;23;20001;-54
2021/12/18 02:25:52;;;;;;;80.07;15.85;;;7.00;65.60;;;;;;6125352;23;20094;-52
2021/12/18 02:28:24;;;;;;;156.68;16.20;;;7.00;65.70;;;;;;6114338;23;20339;-56
2021/12/18 02:30:53;;;;;;;179.85;17.23;;;7.00;65.60;;;;;;6113955;23;20371;-53
2021/12/18 02:33:20;;;;;;;80.50;14.82;;;7.00;65.60;;;;;;6112732;23;19998;-52
2021/12/18 02:35:51;;;;;;;113.88;15.32;;;7.00;65.70;;;;;;6115927;23;19998;-54
2021/12/18 02:38:23;;;;;;;148.43;16.02;;;7.00;65.70;;;;;;6120666;23;20246;-54
2021/12/18 02:43:17;;;;;;;123.53;16.52;;;7.10;65.90;;;;;;6115541;23;20189;-54
2021/12/18 02:45:43;;;;;;;108.85;15.43;;;7.10;65.90;;;;;;6114114;23;20006;-54
2021/12/18 02:48:10;;;;;;;83.50;16.30;;;7.10;65.90;;;;;;6113669;23;20018;-56
2021/12/18 02:50:40;;;;;;;79.70;15.15;;;7.10;65.90;;;;;;6113937;23;20009;-54
2021/12/18 02:53:07;;;;;;;101.88;16.45;;;7.10;65.90;;;;;;6116909;23;20006;-54
2021/12/18 02:55:33;;;;;;;76.70;15.23;;;7.10;65.90;;;;;;6137278;23;20029;-55
2021/12/18 02:57:59;;;;;;;86.40;15.40;;;7.10;65.90;;;;;;6112778;23;20746;-53
2021/12/18 03:00:27;;;;;;;66.85;15.98;;;7.20;66.00;;;;;;6112933;23;20001;-53
2021/12/18 03:02:53;;;;;;;70.50;15.65;;;7.20;66.00;;;;;;6113620;23;20351;-54
2021/12/18 03:05:27;;;;;;;95.88;15.30;;;7.20;66.00;;;;;;6115890;23;20002;-53
2021/12/18 03:08:01;;;;;;;81.28;14.90;;;7.20;66.00;;;;;;6113345;23;20009;-54
2021/12/18 03:24:44;;;;;;;123.68;15.40;;;7.20;66.00;;;;;;6113985;23;20021;-54
2021/12/18 03:26:46;;;;;;;45.58;14.00;;;7.20;66.00;;;;;;6118818;23;20010;-53
2021/12/18 03:29:12;;;;;;;92.50;13.98;;;7.20;65.90;;;;;;6114100;23;20014;-53
2021/12/18 03:31:38;;;;;;;62.58;14.40;;;7.20;65.90;;;;;;6113624;23;20435;-54
2021/12/18 03:34:04;;;;;;;50.03;13.27;;;7.20;65.90;;;;;;6115972;23;20002;-53
2021/12/18 03:36:30;;;;;;;49.97;13.75;;;7.20;65.90;;;;;;6113896;23;20331;-56
2021/12/18 03:38:56;;;;;;;36.72;13.07;;;7.20;65.90;;;;;;6113221;23;20332;-53
2021/12/18 03:41:23;;;;;;;65.53;13.75;;;7.20;65.90;;;;;;6114862;23;20522;-53
2021/12/18 03:43:49;;;;;;;77.70;13.35;;;7.20;65.90;;;;;;6112615;23;20010;-56
2021/12/18 03:46:15;;;;;;;29.15;13.27;;;7.20;65.90;;;;;;6108501;23;20006;-55
2021/12/18 03:48:41;;;;;;;80.68;14.30;;;7.20;65.90;;;;;;6112568;23;20033;-51
2021/12/18 03:51:07;;;;;;;91.68;13.30;;;7.30;66.00;;;;;;6114309;23;20327;-54
2021/12/18 03:53:34;;;;;;;90.47;13.25;;;7.20;65.80;;;;;;6114304;23;19998;-54
2021/12/18 03:56:00;;;;;;;52.33;13.02;;;7.20;65.70;;;;;;6115492;23;20005;-50
2021/12/18 03:58:26;;;;;;;36.78;11.77;;;7.30;65.60;;;;;;6114274;23;20435;-53
2021/12/18 04:00:52;;;;;;;24.27;11.57;;;7.20;65.60;;;;;;6115380;23;20438;-53
2021/12/18 04:03:19;;;;;;;30.23;10.65;;;7.20;65.40;;;;;;6113778;23;20187;-52
2021/12/18 04:05:45;;;;;;;34.95;10.27;;;7.20;65.30;;;;;;6112511;23;20006;-55
2021/12/18 04:08:11;;;;;;;39.95;11.40;;;7.20;65.20;;;;;;6113217;23;20265;-53
2021/12/18 04:10:39;;;;;;;36.45;11.50;;;7.20;65.20;;;;;;6112052;23;20016;-51
2021/12/18 04:13:07;;;;;;;33.80;11.57;;;7.20;65.10;;;;;;6114583;23;20272;-54
2021/12/18 04:15:34;;;;;;;26.08;12.10;;;7.20;65.00;;;;;;6114720;23;20005;-49
2021/12/18 04:18:00;;;;;;;39.42;12.18;;;7.20;65.00;;;;;;6112553;23;20001;-54
2021/12/18 04:20:26;;;;;;;37.08;12.27;;;7.20;65.00;;;;;;6114714;23;20009;-54
2021/12/18 04:22:53;;;;;;;43.40;12.05;;;7.20;64.90;;;;;;6114346;23;20006;-54
2021/12/18 04:25:19;;;;;;;50.47;12.88;;;7.20;64.90;;;;;;6114925;23;20018;-52
2021/12/18 04:27:46;;;;;;;48.63;11.82;;;7.20;64.80;;;;;;6112115;23;20017;-54
2021/12/18 04:30:13;;;;;;;74.35;12.48;;;7.20;64.80;;;;;;6102416;23;20026;-53
2021/12/18 04:32:39;;;;;;;32.80;12.07;;;7.20;64.80;;;;;;6103404;23;20029;-55
2021/12/18 04:35:06;;;;;;;38.35;13.05;;;7.20;64.90;;;;;;6108332;23;20021;-55
2021/12/18 04:37:33;;;;;;;42.17;12.70;;;7.20;64.90;;;;;;6111826;23;20010;-52
2021/12/18 04:39:59;;;;;;;50.67;13.43;;;7.20;64.90;;;;;;6116486;23;20006;-52
2021/12/18 04:42:25;;;;;;;33.13;11.82;;;7.20;64.90;;;;;;6117839;23;20010;-55
2021/12/18 04:44:51;;;;;;;48.13;12.27;;;7.20;64.90;;;;;;6117120;23;20007;-53
2021/12/18 04:47:17;;;;;;;60.80;13.80;;;7.10;64.90;;;;;;6115814;23;20010;-52
2021/12/18 04:49:44;;;;;;;34.95;13.43;;;7.10;64.80;;;;;;6116646;23;20450;-54
2021/12/18 04:52:10;;;;;;;36.47;12.93;;;7.20;64.90;;;;;;6118154;23;19998;-52
2021/12/18 04:54:36;;;;;;;47.58;12.25;;;7.20;64.90;;;;;;6119283;23;19998;-55
2021/12/18 04:57:03;;;;;;;46.00;13.32;;;7.10;64.80;;;;;;6115919;23;20009;-53
2021/12/18 04:59:29;;;;;;;41.10;12.35;;;7.10;64.70;;;;;;6115177;23;20025;-53
2021/12/18 05:01:55;;;;;;;35.47;13.20;;;7.10;64.70;;;;;;6138162;23;20006;-52
2021/12/18 05:04:22;;;;;;;31.23;12.55;;;7.10;64.80;;;;;;6116315;23;20006;-55
2021/12/18 05:06:52;;;;;;;54.70;13.48;;;7.10;64.90;;;;;;6117416;23;20017;-53
2021/12/18 05:09:18;;;;;;;61.85;13.88;;;7.10;64.90;;;;;;6117777;23;20013;-52
2021/12/18 05:11:45;;;;;;;32.35;12.63;;;7.10;65.00;;;;;;6116599;23;20002;-52
2021/12/18 05:14:11;;;;;;;39.15;13.15;;;7.10;65.10;;;;;;6118819;23;19998;-51
2021/12/18 05:16:38;;;;;;;30.25;12.68;;;7.10;65.10;;;;;;6111934;23;20009;-54
2021/12/18 05:19:04;;;;;;;35.78;12.07;;;7.10;65.10;;;;;;6116909;23;20002;-51
2021/12/18 05:21:31;;;;;;;34.95;11.93;;;7.10;65.20;;;;;;6115751;23;20010;-50
2021/12/18 05:23:57;;;;;;;38.47;12.20;;;7.10;65.20;;;;;;6116653;23;20018;-50
2021/12/18 05:26:23;;;;;;;30.00;11.98;;;7.10;65.30;;;;;;6118404;23;20269;-53
2021/12/18 05:28:49;;;;;;;21.67;12.00;;;7.10;65.30;;;;;;6115249;23;20009;-53
2021/12/18 05:31:16;;;;;;;27.25;12.13;;;7.10;65.30;;;;;;6115449;23;20002;-50
2021/12/18 05:33:47;;;;;;;26.27;11.93;;;7.10;65.40;;;;;;6115725;23;20017;-51
2021/12/18 05:36:31;;;;;;;19.98;11.82;;;7.10;65.30;;;;;;6116883;23;20002;-51
2021/12/18 05:39:03;;;;;;;19.33;10.35;;;7.10;65.40;;;;;;6110178;23;20013;-56
2021/12/18 05:41:29;;;;;;;23.50;11.75;;;7.10;65.40;;;;;;6114780;23;20063;-52
2021/12/18 05:43:56;;;;;;;29.48;11.38;;;7.10;65.40;;;;;;6111809;23;20013;-50
2021/12/18 05:46:22;;;;;;;25.02;11.82;;;7.10;65.50;;;;;;6113163;23;20002;-52
2021/12/18 05:48:48;;;;;;;22.98;11.60;;;7.10;65.40;;;;;;6112057;23;20006;-52
2021/12/18 05:51:14;;;;;;;40.35;11.50;;;7.10;65.50;;;;;;6109899;23;20380;-50
2021/12/18 05:53:41;;;;;;;48.70;12.65;;;7.10;65.60;;;;;;6114580;23;20017;-52
2021/12/18 05:56:07;;;;;;;19.80;11.45;;;7.10;65.60;;;;;;6114252;23;20009;-54
2021/12/18 05:58:33;;;;;;;39.53;12.68;;;7.10;65.60;;;;;;6115849;23;20439;-53
2021/12/18 06:01:00;;;;;;;19.88;12.18;;;7.20;65.70;;;;;;6114622;23;20434;-50
2021/12/18 06:03:26;;;;;;;26.50;12.43;;;7.20;65.70;;;;;;6137656;23;20002;-54
2021/12/18 06:05:52;;;;;;;23.58;12.38;;;7.20;65.80;;;;;;6115885;23;19998;-53
2021/12/18 06:08:18;;;;;;;25.05;12.63;;;7.20;65.80;;;;;;6136941;23;20005;-55
2021/12/18 06:10:45;;;;;;;27.33;12.98;;;7.20;65.70;;;;;;6115973;23;20006;-52
2021/12/18 06:13:11;;;;;;;29.02;13.23;;;7.20;65.60;;;;;;6113722;23;20002;-50
2021/12/18 06:15:37;;;;;;;26.20;12.32;;;7.20;65.60;;;;;;6112314;23;19998;-52
2021/12/18 06:18:03;;;;;;;23.13;12.02;;;7.20;66.30;;;;;;6112428;23;20498;-55
2021/12/18 06:20:30;;;;;;;32.28;11.55;;;7.20;65.60;;;;;;6115403;23;20006;-53
2021/12/18 06:22:57;;;;;;;31.77;11.88;;;7.20;65.50;;;;;;6115789;23;20645;-54
2021/12/18 06:25:23;;;;;;;23.70;12.00;;;7.20;65.50;;;;;;6116506;23;20049;-51
2021/12/18 06:27:49;;;;;;;54.97;12.25;;;7.20;65.50;;;;;;6115407;23;20010;-53
2021/12/18 06:30:18;;;;;;;23.40;11.65;;;7.20;65.50;;;;;;6115327;23;20010;-51
2021/12/18 06:32:44;;;;;;;20.52;11.77;;;7.20;65.50;;;;;;6104747;23;19998;-49
2021/12/18 06:35:10;;;;;;;29.45;11.45;;;7.20;65.50;;;;;;6105442;23;20192;-53
2021/12/18 06:37:37;;;;;;;19.15;11.10;;;7.20;65.60;;;;;;6111022;23;20005;-54
2021/12/18 06:40:04;;;;;;;46.78;11.93;;;7.20;65.60;;;;;;6114270;23;20013;-53
2021/12/18 06:42:31;;;;;;;42.65;12.80;;;7.20;65.70;;;;;;6115027;23;20036;-54
2021/12/18 06:44:57;;;;;;;35.60;12.27;;;7.20;65.70;;;;;;6115903;23;20009;-51
2021/12/18 06:47:23;;;;;;;30.48;11.90;;;7.20;65.70;;;;;;6112770;23;20312;-50
2021/12/18 06:49:49;;;;;;;46.17;12.95;;;7.20;65.70;;;;;;6110230;23;20006;-51
2021/12/18 06:52:15;;;;;;;33.85;11.15;;;7.20;65.70;;;;;;6103798;23;20491;-52
2021/12/18 06:54:41;;;;;;;44.67;12.10;;;7.20;65.60;;;;;;6106050;23;20001;-51
2021/12/18 06:57:08;;;;;;;23.73;12.88;;;7.20;65.60;;;;;;6106300;23;20050;-51
2021/12/18 06:59:34;;;;;;;42.10;12.40;;;7.20;65.60;;;;;;6112237;23;20013;-52
2021/12/18 07:02:00;;;;;;;31.42;12.02;;;7.20;65.60;;;;;;6111830;23;20010;-52
2021/12/18 07:04:26;;;;;;;39.13;11.80;;;7.20;65.70;;;;;;6116053;23;20006;-52
2021/12/18 07:06:54;;;;;;;21.85;11.80;;;7.20;65.60;;;;;;6114021;23;20012;-53
2021/12/18 07:09:20;;;;;;;33.15;11.88;;;7.20;65.60;;;;;;6114457;23;20189;-53
2021/12/18 07:11:47;;;;;;;31.70;11.40;;;7.20;65.50;;;;;;6113951;23;20010;-50
2021/12/18 07:14:13;;;;;;;28.15;11.75;;;7.20;65.50;;;;;;6109950;23;20013;-52
2021/12/18 07:16:40;;;;;;;23.77;11.85;;;7.20;65.50;;;;;;6109100;23;20336;-50
2021/12/18 07:19:06;;;;;;;28.52;12.55;;;7.20;65.50;;;;;;6114436;23;20017;-52
2021/12/18 07:21:32;;;;;;;36.70;11.40;;;7.20;65.50;;;;;;6115113;23;20265;-49
2021/12/18 07:23:58;;;;;;;21.92;12.15;;;7.20;65.50;;;;;;6111562;23;20005;-51
2021/12/18 07:26:24;;;;;;;23.70;11.23;;;7.20;65.60;;;;;;6113492;23;19998;-52
2021/12/18 07:28:51;;;;;;;23.50;11.60;;;7.20;65.60;;;;;;6109904;23;20518;-53
2021/12/18 07:31:17;;;;;;;19.80;10.02;;;7.20;65.70;;;;;;6106290;23;20006;-48
2021/12/18 07:33:44;;;;;;;28.60;10.88;;;7.20;65.70;;;;;;6112644;23;20009;-53
2021/12/18 07:36:10;;;;;;;21.50;11.75;;;7.20;65.70;;;;;;6109901;23;20006;-51
2021/12/18 07:38:36;;;;;;;20.83;10.48;;;7.20;65.70;;;;;;6106753;23;20002;-54
2021/12/18 07:41:03;;;;;;;24.70;9.82;;;7.20;65.80;;;;;;6105358;23;20013;-54
2021/12/18 07:43:29;;;;;;;27.60;10.07;;;7.20;65.80;;;;;;6110124;23;20674;-52
2021/12/18 07:45:55;;;;;;;23.33;10.63;;;7.20;65.80;;;;;;6114447;23;20006;-50
2021/12/18 07:48:21;;;;;;;19.08;9.85;;;7.20;65.90;;;;;;6106422;23;20005;-51
2021/12/18 07:50:48;;;;;;;17.58;9.25;;;7.20;66.00;;;;;;6112678;23;20343;-53
2021/12/18 07:53:14;;;;;;;18.63;9.93;;;7.20;66.00;;;;;;6106860;23;20016;-52
2021/12/18 07:55:41;;;;;;;22.85;10.07;;;7.20;66.10;;;;;;6108248;23;20371;-51
2021/12/18 07:58:07;;;;;;;20.55;10.15;;;7.20;66.10;;;;;;6104765;23;20012;-54
2021/12/18 08:00:33;;;;;;;18.05;9.38;;;7.30;66.20;;;;;;6113138;23;20006;-50
2021/12/18 08:02:59;;;;;;;22.33;10.80;;;7.30;66.30;;;;;;6112221;23;20013;-52
2021/12/18 08:05:25;;;;;;;22.85;9.40;;;7.30;66.30;;;;;;6109477;23;20009;-52
2021/12/18 08:07:51;;;;;;;21.35;9.88;;;7.30;66.30;;;;;;6111286;23;20001;-54
2021/12/18 08:10:18;;;;;;;20.73;10.10;;;7.30;66.40;;;;;;6111006;23;20059;-51
2021/12/18 08:12:44;;;;;;;20.63;9.90;;;7.30;66.40;;;;;;6112543;23;19998;-51
2021/12/18 08:15:10;;;;;;;19.20;9.85;;;7.30;66.40;;;;;;6111677;23;20006;-53
2021/12/18 08:17:37;;;;;;;22.50;10.32;;;7.30;66.40;;;;;;6112942;23;20323;-53
2021/12/18 08:20:04;;;;;;;27.90;10.13;;;7.30;66.50;;;;;;6113872;23;20002;-51
2021/12/18 08:22:31;;;;;;;21.35;10.75;;;7.40;66.50;;;;;;6112842;23;20006;-51
2021/12/18 08:24:57;;;;;;;21.27;9.73;;;7.40;66.60;;;;;;6113397;23;20026;-53
2021/12/18 08:27:23;;;;;;;56.30;22.52;;;7.40;67.30;;;;;;6114153;23;20196;-52
2021/12/18 08:29:49;;;;;;;34.67;15.38;;;7.40;66.60;;;;;;6111563;23;20010;-52
2021/12/18 08:32:15;;;;;;;27.55;12.27;;;7.50;66.70;;;;;;6108357;23;20427;-51
2021/12/18 08:34:42;;;;;;;22.23;10.10;;;7.50;66.60;;;;;;6114039;23;20439;-50
2021/12/18 08:37:08;;;;;;;27.35;9.63;;;7.50;66.70;;;;;;6111759;23;20010;-52
2021/12/18 08:39:34;;;;;;;20.08;10.18;;;7.60;66.60;;;;;;6108213;23;20005;-48
2021/12/18 08:42:04;;;;;;;24.67;10.85;;;7.50;66.50;;;;;;6112102;23;20006;-52
2021/12/18 08:44:32;;;;;;;19.55;9.73;;;7.60;66.60;;;;;;6111768;23;20014;-51
2021/12/18 08:46:58;;;;;;;19.90;9.25;;;7.60;66.60;;;;;;6109413;23;20009;-51
2021/12/18 08:49:26;;;;;;;19.63;9.07;;;7.70;66.60;;;;;;6113841;23;20013;-55
2021/12/18 08:51:53;;;;;;;19.80;9.85;;;7.70;66.60;;;;;;6113026;23;20002;-53
2021/12/18 08:54:20;;;;;;;18.92;9.43;;;7.70;66.60;;;;;;6113059;23;20002;-51
2021/12/18 08:56:46;;;;;;;26.20;8.98;;;7.70;66.50;;;;;;6114074;23;20005;-52
2021/12/18 08:59:13;;;;;;;27.52;9.38;;;7.70;66.40;;;;;;6113822;23;20002;-52
2021/12/18 09:01:40;;;;;;;22.75;9.00;;;7.80;66.40;;;;;;6111162;23;20441;-53
2021/12/18 09:04:06;;;;;;;19.52;9.82;;;7.80;66.40;;;;;;6114089;23;20006;-53
2021/12/18 09:06:32;;;;;;;19.23;9.18;;;7.80;66.30;;;;;;6114145;23;20009;-51
2021/12/18 09:08:58;;;;;;;21.23;9.27;;;7.80;66.40;;;;;;6112407;23;20006;-52
2021/12/18 09:11:25;;;;;;;20.50;8.70;;;7.80;66.30;;;;;;6114325;23;20009;-56
2021/12/18 09:13:51;;;;;;;22.40;8.90;;;7.80;66.30;;;;;;6114993;23;20006;-50
2021/12/18 09:16:18;;;;;;;25.20;9.00;;;7.90;66.40;;;;;;6110091;23;20006;-54
2021/12/18 09:18:44;;;;;;;19.95;9.60;;;7.90;66.40;;;;;;6112909;23;20364;-53
2021/12/18 09:21:10;;;;;;;23.45;10.35;;;7.90;66.40;;;;;;6114713;23;20002;-52
2021/12/18 09:23:37;;;;;;;19.90;9.60;;;8.00;66.50;;;;;;6113012;23;20002;-56
2021/12/18 09:26:03;;;;;;;20.92;9.75;;;8.00;66.50;;;;;;6124556;23;20013;-52
2021/12/18 09:28:29;;;;;;;20.00;9.77;;;8.00;66.50;;;;;;6115299;23;20002;-51
2021/12/18 09:30:55;;;;;;;20.02;9.68;;;8.00;66.50;;;;;;6114642;23;20016;-51
2021/12/18 09:33:22;;;;;;;17.42;9.15;;;8.10;66.60;;;;;;6115191;23;20006;-52
2021/12/18 09:35:48;;;;;;;21.63;10.23;;;8.10;66.60;;;;;;6115793;23;20331;-56
2021/12/18 09:38:15;;;;;;;24.55;9.70;;;8.10;66.60;;;;;;6114019;23;20002;-54
2021/12/18 09:40:41;;;;;;;18.65;9.73;;;8.10;66.60;;;;;;6113857;23;20010;-54
2021/12/18 09:43:07;;;;;;;19.52;9.13;;;8.20;66.60;;;;;;6116612;23;20005;-54
2021/12/18 09:45:33;;;;;;;17.58;8.57;;;8.20;66.60;;;;;;6116298;23;20335;-54
2021/12/18 09:47:59;;;;;;;19.83;9.13;;;8.20;66.60;;;;;;6112461;23;20002;-51
2021/12/18 09:50:28;;;;;;;17.67;8.90;;;8.30;66.70;;;;;;6115394;23;20002;-52
2021/12/18 09:52:54;;;;;;;20.15;9.68;;;8.30;66.60;;;;;;6115506;23;20017;-49
2021/12/18 09:55:21;;;;;;;18.60;8.30;;;8.30;66.60;;;;;;6116524;23;20017;-53
2021/12/18 09:57:49;;;;;;;17.90;8.68;;;8.40;66.60;;;;;;6113653;23;20427;-54
2021/12/18 10:00:19;;;;;;;24.45;8.63;;;8.40;66.60;;;;;;6114689;23;20006;-52
2021/12/18 10:02:45;;;;;;;29.75;10.02;;;8.40;66.50;;;;;;6111236;23;20002;-54
2021/12/18 10:05:27;;;;;;;18.45;8.70;;;8.40;66.40;;;;;;6116083;23;20431;-53
2021/12/18 10:08:19;;;;;;;16.98;8.45;;;8.50;66.30;;;;;;6115289;23;19998;-48
2021/12/18 10:11:02;;;;;;;21.52;10.10;;;8.50;66.10;;;;;;6114167;23;20010;-52
2021/12/18 10:13:29;;;;;;;20.83;8.57;;;8.50;65.90;;;;;;6125235;23;19998;-54
2021/12/18 10:16:13;;;;;;;17.75;8.30;;;8.50;65.80;;;;;;6114703;23;20009;-54
2021/12/18 10:18:39;;;;;;;15.23;8.05;;;8.60;65.80;;;;;;6123562;23;20002;-51
2021/12/18 10:21:19;;;;;;;16.33;7.72;;;8.60;65.80;;;;;;6115110;23;20192;-53
2021/12/18 10:23:48;;;;;;;15.55;7.50;;;8.60;65.60;;;;;;6113637;23;20013;-55
2021/12/18 10:26:37;;;;;;;16.15;7.35;;;8.60;65.60;;;;;;6123980;23;20332;-53
2021/12/18 10:29:36;;;;;;;18.00;6.25;;;8.60;65.50;;;;;;6113076;23;20006;-53
2021/12/18 10:32:09;;;;;;;14.55;7.18;;;8.60;65.40;;;;;;6107936;23;20342;-54
2021/12/18 10:34:36;;;;;;;14.27;6.93;;;8.70;65.30;;;;;;6125935;23;20002;-50
2021/12/18 10:37:19;;;;;;;14.80;7.15;;;8.60;65.30;;;;;;6112555;23;19998;-49
2021/12/18 10:39:58;;;;;;;11.88;6.70;;;8.70;65.20;;;;;;6122425;23;20002;-51
2021/12/18 10:42:31;;;;;;;13.32;6.65;;;8.60;65.10;;;;;;6124774;23;19998;-53
2021/12/18 10:45:01;;;;;;;13.07;7.22;;;8.70;65.00;;;;;;6114933;23;20006;-51
2021/12/18 10:47:49;;;;;;;14.07;6.20;;;8.70;64.80;;;;;;6111818;23;20002;-55
2021/12/18 10:50:43;;;;;;;15.32;7.55;;;8.70;64.80;;;;;;6124706;23;20335;-55
2021/12/18 10:53:17;;;;;;;13.63;6.95;;;8.70;64.70;;;;;;6124995;23;20025;-53
2021/12/18 10:55:55;;;;;;;11.80;6.55;;;8.70;64.80;;;;;;6114206;23;20452;-54
2021/12/18 10:58:25;;;;;;;14.50;7.07;;;8.70;64.70;;;;;;6113925;23;20450;-55
2021/12/18 11:01:11;;;;;;;12.80;6.70;;;8.70;64.60;;;;;;6113445;23;20316;-51
2021/12/18 11:03:41;;;;;;;17.33;6.65;;;8.70;64.60;;;;;;6122570;23;20025;-53
2021/12/18 11:06:20;;;;;;;13.60;7.22;;;8.70;64.70;;;;;;6113463;23;19998;-52
2021/12/18 11:08:53;;;;;;;14.93;7.15;;;8.70;64.50;;;;;;6135325;23;20009;-54
2021/12/18 11:14:06;;;;;;;13.38;6.00;;;8.70;64.50;;;;;;6121635;23;20006;-54
2021/12/18 11:16:36;;;;;;;15.38;7.60;;;8.80;64.30;;;;;;6112425;23;20277;-53
2021/12/18 11:19:11;;;;;;;13.13;6.40;;;8.80;64.40;;;;;;6113963;23;20018;-54
2021/12/18 11:21:38;;;;;;;;;;;8.80;64.40;;;;;;6109426;23;20006;-55
2021/12/18 11:24:07;;;;;;;17.38;6.50;;;8.80;64.50;;;;;;6110370;23;20241;-55
2021/12/18 11:26:49;;;;;;;13.55;7.28;;;8.80;64.30;;;;;;6112560;23;20021;-54
2021/12/18 11:29:26;;;;;;;14.15;6.78;;;8.80;64.20;;;;;;6108350;23;20316;-52
2021/12/18 11:31:54;;;;;;;11.10;6.18;;;8.80;64.20;;;;;;6109454;23;20006;-53
2021/12/18 11:34:20;;;;;;;14.50;7.13;;;8.80;64.30;;;;;;6112597;23;20002;-51
2021/12/18 11:36:49;;;;;;;13.75;7.22;;;8.80;64.30;;;;;;6114136;23;20010;-51
2021/12/18 11:39:18;;;;;;;14.38;7.10;;;8.80;64.40;;;;;;6108615;23;20014;-52
2021/12/18 11:41:50;;;;;;;12.73;7.25;;;8.80;64.50;;;;;;6115061;23;20642;-54
2021/12/18 11:44:25;;;;;;;11.90;6.50;;;8.80;65.20;;;;;;6124175;23;20404;-50
2021/12/18 11:46:51;;;;;;;16.52;7.22;;;8.80;64.50;;;;;;6110118;23;20037;-52
2021/12/18 11:49:19;;;;;;;92.18;31.90;;;8.80;64.50;;;;;;6113927;23;20023;-54
2021/12/18 11:52:04;;;;;;;30.88;14.40;;;8.80;64.60;;;;;;6112746;23;20454;-50
2021/12/18 11:54:51;;;;;;;20.60;10.02;;;8.80;65.30;;;;;;6111902;23;20448;-52
2021/12/18 11:57:38;;;;;;;12.68;6.95;;;8.90;64.70;;;;;;6111815;23;20012;-53
2021/12/18 12:00:15;;;;;;;14.45;6.18;;;8.90;64.80;;;;;;6108197;23;20002;-48
2021/12/18 12:02:49;;;;;;;12.70;6.85;;;8.90;64.80;;;;;;6122506;23;20017;-51
2021/12/18 12:05:18;;;;;;;14.52;6.75;;;8.90;64.80;;;;;;6114006;23;20006;-51
2021/12/18 12:07:45;;;;;;;30.70;16.83;;;8.90;64.70;;;;;;6113106;23;20006;-54
2021/12/18 12:13:59;;;;;;;37.15;8.13;;;8.90;64.40;;;;;;6111129;23;20101;-53
2021/12/18 12:16:46;;;;;;;12.77;6.93;;;8.90;64.20;;;;;;6123147;23;20009;-49
2021/12/18 12:19:32;;;;;;;19.13;7.35;;;9.00;64.10;;;;;;6112914;23;20005;-53
2021/12/18 12:21:58;;;;;;;13.43;7.40;;;9.00;64.00;;;;;;6111643;23;20013;-52
2021/12/18 12:24:28;;;;;;;12.88;7.13;;;8.90;63.90;;;;;;6113238;23;20013;-52
2021/12/18 12:27:15;;;;;;;16.77;7.95;;;8.90;63.90;;;;;;6108537;23;20502;-52
2021/12/18 12:29:46;;;;;;;19.35;10.20;;;8.90;63.80;;;;;;6114367;23;20009;-52
2021/12/18 12:32:13;;;;;;;18.52;10.65;;;8.90;63.90;;;;;;6112882;23;20339;-49
2021/12/18 12:34:40;;;;;;;15.10;8.35;;;8.90;63.90;;;;;;6115145;23;20005;-51
2021/12/18 12:37:38;;;;;;;15.13;7.20;;;8.80;64.10;;;;;;6114198;23;20005;-53
2021/12/18 12:40:07;;;;;;;14.70;6.45;;;8.90;64.30;;;;;;6102991;23;20002;-53
2021/12/18 12:42:34;;;;;;;10.77;6.32;;;8.80;64.30;;;;;;6113022;23;20010;-54
2021/12/18 12:45:05;;;;;;;24.67;11.27;;;8.80;64.30;;;;;;6112998;23;19994;-55
2021/12/18 12:47:32;;;;;;;13.55;7.90;;;8.90;64.40;;;;;;6121764;23;20025;-51
2021/12/18 12:50:12;;;;;;;11.27;6.57;;;8.90;65.20;;;;;;6112603;23;19998;-52
2021/12/18 12:52:58;;;;;;;15.63;7.25;;;8.90;64.50;;;;;;6114415;23;20013;-49
2021/12/18 12:55:38;;;;;;;15.10;6.78;;;8.90;65.20;;;;;;6123181;23;19998;-53
2021/12/18 12:58:22;;;;;;;18.50;7.57;;;8.80;64.50;;;;;;6110476;23;20010;-52
2021/12/18 13:01:00;;;;;;;16.95;7.35;;;8.90;64.60;;;;;;6116172;23;20323;-53
2021/12/18 13:03:37;;;;;;;19.83;11.38;;;8.90;64.50;;;;;;6116252;23;20017;-52
2021/12/18 13:06:07;;;;;;;12.25;6.57;;;8.90;64.50;;;;;;6117243;23;20006;-49
2021/12/18 13:08:39;;;;;;;16.45;10.98;;;8.90;64.40;;;;;;6115435;23;20002;-50
2021/12/18 13:11:07;;;;;;;12.38;7.32;;;8.90;64.50;;;;;;6115180;23;20340;-54
2021/12/18 13:13:35;;;;;;;15.23;6.70;;;8.90;64.20;;;;;;6116998;23;20005;-54
2021/12/18 13:16:16;;;;;;;11.00;6.13;;;8.80;64.00;;;;;;6115813;23;20021;-54
2021/12/18 13:18:52;;;;;;;13.65;7.05;;;8.80;64.10;;;;;;6123216;23;20327;-53
2021/12/18 13:21:26;;;;;;;18.08;7.45;;;8.80;64.40;;;;;;6116065;23;20005;-55
2021/12/18 13:24:02;;;;;;;19.52;6.63;;;8.80;64.60;;;;;;6119331;23;20014;-50
2021/12/18 13:26:32;;;;;;;16.67;7.78;;;8.70;64.50;;;;;;6115514;23;20001;-51
2021/12/18 13:29:02;;;;;;;16.33;8.23;;;8.70;64.60;;;;;;6116007;23;20005;-52
2021/12/18 13:31:33;;;;;;;14.98;7.43;;;8.70;65.00;;;;;;6113614;23;20013;-52
2021/12/18 13:34:08;;;;;;;13.48;6.78;;;8.70;65.20;;;;;;6126238;23;20505;-54
2021/12/18 13:36:42;;;;;;;15.07;6.65;;;8.70;65.30;;;;;;6124723;23;20005;-51
2021/12/18 13:39:11;;;;;;;13.35;6.45;;;8.70;65.50;;;;;;6123248;23;19998;-50
2021/12/18 13:41:38;;;;;;;12.57;6.63;;;8.70;65.60;;;;;;6115304;23;20304;-54
2021/12/18 13:44:04;;;;;;;15.85;7.50;;;8.80;65.70;;;;;;6116989;23;20002;-53
2021/12/18 13:46:32;;;;;;;13.85;6.78;;;8.80;65.80;;;;;;6108485;23;20005;-55
2021/12/18 13:48:59;;;;;;;9.77;5.53;;;8.80;65.90;;;;;;6113332;23;20347;-51
2021/12/18 13:51:26;;;;;;;12.80;6.03;;;8.80;65.90;;;;;;6116270;23;20450;-51
2021/12/18 13:53:58;;;;;;;12.35;6.22;;;8.90;65.80;;;;;;6116627;23;20005;-50
2021/12/18 13:56:31;;;;;;;10.57;5.38;;;8.90;65.80;;;;;;6110762;23;20006;-52
2021/12/18 13:58:58;;;;;;;15.83;6.10;;;8.90;65.80;;;;;;6121075;23;20002;-54
2021/12/18 14:01:24;;;;;;;18.38;7.13;;;8.90;65.70;;;;;;6113079;23;20006;-54
2021/12/18 14:03:58;;;;;;;14.35;6.40;;;8.90;65.60;;;;;;6115128;23;20431;-53
2021/12/18 14:06:35;;;;;;;14.93;7.93;;;8.90;65.60;;;;;;6116416;23;20427;-53
2021/12/18 14:09:12;;;;;;;14.75;7.35;;;8.90;65.50;;;;;;6112587;23;20002;-54